sensor_id;sensor_type;location;lat;lon;timestamp;P1;durP1;ratioP1;P2;durP2;ratioP2
44850;SDS011;30583;48.714;9.386;2023-04-29T00:01:23;7.72;;;5.85;;
44850;SDS011;30583;48.714;9.386;2023-04-29T00:03:49;8.25;;;4.97;;
44850;SDS011;30583;48.714;9.386;2023-04-29T00:06:14;6.80;;;4.47;;
44850;SDS011;30583;48.714;9.386;2023-04-29T00:08:40;8.40;;;4.53;;
44850;SDS011;30583;48.714;9.386;2023-04-29T00:11:06;7.90;;;4.40;;
44850;SDS011;30583;48.714;9.386;2023-04-29T00:13:31;7.68;;;4.78;;
44850;SDS011;30583;48.714;9.386;2023-04-29T00:15:57;5.05;;;4.05;;
44850;SDS011;30583;48.714;9.386;2023-04-29T00:18:22;8.45;;;4.20;;
44850;SDS011;30583;48.714;9.386;2023-04-29T00:20:48;8.57;;;5.07;;
44850;SDS011;30583;48.714;9.386;2023-04-29T00:23:14;5.75;;;3.92;;
44850;SDS011;30583;48.714;9.386;2023-04-29T00:25:39;6.68;;;3.70;;
44850;SDS011;30583;48.714;9.386;2023-04-29T00:28:05;7.32;;;4.13;;
44850;SDS011;30583;48.714;9.386;2023-04-29T00:30:30;8.38;;;3.90;;
44850;SDS011;30583;48.714;9.386;2023-04-29T00:32:58;5.95;;;4.13;;
44850;SDS011;30583;48.714;9.386;2023-04-29T00:35:24;9.05;;;4.00;;
44850;SDS011;30583;48.714;9.386;2023-04-29T00:37:50;4.95;;;3.90;;
44850;SDS011;30583;48.714;9.386;2023-04-29T00:40:16;5.38;;;3.65;;
44850;SDS011;30583;48.714;9.386;2023-04-29T00:42:42;6.30;;;3.90;;
44850;SDS011;30583;48.714;9.386;2023-04-29T00:45:08;9.93;;;4.03;;
44850;SDS011;30583;48.714;9.386;2023-04-29T00:47:35;5.57;;;3.92;;
44850;SDS011;30583;48.714;9.386;2023-04-29T00:50:01;5.30;;;3.28;;
44850;SDS011;30583;48.714;9.386;2023-04-29T00:52:28;4.90;;;4.03;;
44850;SDS011;30583;48.714;9.386;2023-04-29T00:54:55;6.53;;;3.85;;
44850;SDS011;30583;48.714;9.386;2023-04-29T00:57:21;5.40;;;3.55;;
44850;SDS011;30583;48.714;9.386;2023-04-29T00:59:47;4.88;;;3.83;;
44850;SDS011;30583;48.714;9.386;2023-04-29T01:02:14;5.07;;;3.60;;
44850;SDS011;30583;48.714;9.386;2023-04-29T01:04:41;6.90;;;3.65;;
44850;SDS011;30583;48.714;9.386;2023-04-29T01:07:08;5.18;;;3.78;;
44850;SDS011;30583;48.714;9.386;2023-04-29T01:10:02;6.70;;;3.92;;
44850;SDS011;30583;48.714;9.386;2023-04-29T01:15:22;5.20;;;3.83;;
44850;SDS011;30583;48.714;9.386;2023-04-29T01:20:48;6.93;;;4.30;;
44850;SDS011;30583;48.714;9.386;2023-04-29T01:23:14;5.63;;;3.88;;
44850;SDS011;30583;48.714;9.386;2023-04-29T01:25:40;4.95;;;3.53;;
44850;SDS011;30583;48.714;9.386;2023-04-29T01:29:12;7.53;;;5.10;;
44850;SDS011;30583;48.714;9.386;2023-04-29T01:33:47;5.30;;;3.42;;
44850;SDS011;30583;48.714;9.386;2023-04-29T01:36:33;6.38;;;3.65;;
44850;SDS011;30583;48.714;9.386;2023-04-29T01:39:13;5.13;;;3.47;;
44850;SDS011;30583;48.714;9.386;2023-04-29T01:41:56;4.70;;;3.20;;
44850;SDS011;30583;48.714;9.386;2023-04-29T01:44:28;4.53;;;2.72;;
44850;SDS011;30583;48.714;9.386;2023-04-29T01:46:56;6.97;;;3.40;;
44850;SDS011;30583;48.714;9.386;2023-04-29T01:49:23;5.40;;;2.83;;
44850;SDS011;30583;48.714;9.386;2023-04-29T01:51:52;6.25;;;3.40;;
44850;SDS011;30583;48.714;9.386;2023-04-29T01:54:18;4.47;;;2.97;;
44850;SDS011;30583;48.714;9.386;2023-04-29T01:56:45;7.07;;;5.45;;
44850;SDS011;30583;48.714;9.386;2023-04-29T01:59:10;6.60;;;3.78;;
44850;SDS011;30583;48.714;9.386;2023-04-29T02:01:36;5.25;;;2.90;;
44850;SDS011;30583;48.714;9.386;2023-04-29T02:04:01;5.25;;;3.45;;
44850;SDS011;30583;48.714;9.386;2023-04-29T02:06:27;5.53;;;3.80;;
44850;SDS011;30583;48.714;9.386;2023-04-29T02:08:56;7.13;;;3.83;;
44850;SDS011;30583;48.714;9.386;2023-04-29T02:11:22;5.18;;;3.55;;
44850;SDS011;30583;48.714;9.386;2023-04-29T02:13:47;5.63;;;3.38;;
44850;SDS011;30583;48.714;9.386;2023-04-29T02:16:13;4.07;;;2.72;;
44850;SDS011;30583;48.714;9.386;2023-04-29T02:18:39;5.80;;;3.03;;
44850;SDS011;30583;48.714;9.386;2023-04-29T02:21:05;4.28;;;2.72;;
44850;SDS011;30583;48.714;9.386;2023-04-29T02:23:31;4.40;;;2.88;;
44850;SDS011;30583;48.714;9.386;2023-04-29T02:25:58;3.40;;;2.70;;
44850;SDS011;30583;48.714;9.386;2023-04-29T02:28:24;4.45;;;2.95;;
44850;SDS011;30583;48.714;9.386;2023-04-29T02:30:49;7.78;;;4.15;;
44850;SDS011;30583;48.714;9.386;2023-04-29T02:33:15;7.80;;;3.80;;
44850;SDS011;30583;48.714;9.386;2023-04-29T02:35:42;4.20;;;2.90;;
44850;SDS011;30583;48.714;9.386;2023-04-29T02:38:08;5.13;;;2.60;;
44850;SDS011;30583;48.714;9.386;2023-04-29T02:40:34;5.43;;;3.10;;
44850;SDS011;30583;48.714;9.386;2023-04-29T02:43:04;3.58;;;2.45;;
44850;SDS011;30583;48.714;9.386;2023-04-29T02:45:30;3.58;;;2.60;;
44850;SDS011;30583;48.714;9.386;2023-04-29T02:47:56;9.25;;;2.55;;
44850;SDS011;30583;48.714;9.386;2023-04-29T02:50:21;4.28;;;2.38;;
44850;SDS011;30583;48.714;9.386;2023-04-29T02:52:49;3.38;;;2.45;;
44850;SDS011;30583;48.714;9.386;2023-04-29T02:55:15;4.35;;;2.58;;
44850;SDS011;30583;48.714;9.386;2023-04-29T02:57:41;4.00;;;2.58;;
44850;SDS011;30583;48.714;9.386;2023-04-29T03:00:07;4.88;;;2.90;;
44850;SDS011;30583;48.714;9.386;2023-04-29T03:02:34;4.78;;;2.92;;
44850;SDS011;30583;48.714;9.386;2023-04-29T03:04:59;5.53;;;2.92;;
44850;SDS011;30583;48.714;9.386;2023-04-29T03:07:25;7.13;;;3.22;;
44850;SDS011;30583;48.714;9.386;2023-04-29T03:09:52;3.78;;;2.90;;
44850;SDS011;30583;48.714;9.386;2023-04-29T03:12:18;4.28;;;3.03;;
44850;SDS011;30583;48.714;9.386;2023-04-29T03:14:44;5.68;;;3.35;;
44850;SDS011;30583;48.714;9.386;2023-04-29T03:17:10;4.68;;;3.35;;
44850;SDS011;30583;48.714;9.386;2023-04-29T03:19:36;4.75;;;3.05;;
44850;SDS011;30583;48.714;9.386;2023-04-29T03:22:01;4.97;;;3.33;;
44850;SDS011;30583;48.714;9.386;2023-04-29T03:24:27;6.40;;;3.25;;
44850;SDS011;30583;48.714;9.386;2023-04-29T03:26:52;7.30;;;3.00;;
44850;SDS011;30583;48.714;9.386;2023-04-29T03:29:18;4.70;;;3.05;;
44850;SDS011;30583;48.714;9.386;2023-04-29T03:31:44;5.00;;;3.25;;
44850;SDS011;30583;48.714;9.386;2023-04-29T03:34:10;6.20;;;3.00;;
44850;SDS011;30583;48.714;9.386;2023-04-29T03:36:35;4.45;;;2.97;;
44850;SDS011;30583;48.714;9.386;2023-04-29T03:39:01;5.85;;;2.97;;
44850;SDS011;30583;48.714;9.386;2023-04-29T03:41:26;4.15;;;2.92;;
44850;SDS011;30583;48.714;9.386;2023-04-29T03:43:52;5.38;;;2.92;;
44850;SDS011;30583;48.714;9.386;2023-04-29T03:46:18;4.15;;;2.80;;
44850;SDS011;30583;48.714;9.386;2023-04-29T03:48:44;5.70;;;2.80;;
44850;SDS011;30583;48.714;9.386;2023-04-29T03:51:10;4.75;;;2.70;;
44850;SDS011;30583;48.714;9.386;2023-04-29T03:53:36;4.60;;;2.63;;
44850;SDS011;30583;48.714;9.386;2023-04-29T03:56:02;3.67;;;2.75;;
44850;SDS011;30583;48.714;9.386;2023-04-29T03:58:27;4.22;;;2.95;;
44850;SDS011;30583;48.714;9.386;2023-04-29T04:00:53;5.40;;;2.80;;
44850;SDS011;30583;48.714;9.386;2023-04-29T04:03:19;5.07;;;3.33;;
44850;SDS011;30583;48.714;9.386;2023-04-29T04:05:46;5.78;;;3.13;;
44850;SDS011;30583;48.714;9.386;2023-04-29T04:08:12;4.43;;;3.33;;
44850;SDS011;30583;48.714;9.386;2023-04-29T04:10:37;4.40;;;3.25;;
44850;SDS011;30583;48.714;9.386;2023-04-29T04:13:03;4.85;;;3.40;;
44850;SDS011;30583;48.714;9.386;2023-04-29T04:15:28;4.53;;;3.20;;
44850;SDS011;30583;48.714;9.386;2023-04-29T04:17:54;6.53;;;3.40;;
44850;SDS011;30583;48.714;9.386;2023-04-29T04:20:19;5.45;;;3.40;;
44850;SDS011;30583;48.714;9.386;2023-04-29T04:22:45;4.32;;;3.50;;
44850;SDS011;30583;48.714;9.386;2023-04-29T04:25:11;5.45;;;3.50;;
44850;SDS011;30583;48.714;9.386;2023-04-29T04:27:36;6.65;;;4.40;;
44850;SDS011;30583;48.714;9.386;2023-04-29T04:30:02;7.00;;;4.95;;
44850;SDS011;30583;48.714;9.386;2023-04-29T04:32:28;7.38;;;5.00;;
44850;SDS011;30583;48.714;9.386;2023-04-29T04:34:53;7.28;;;5.13;;
44850;SDS011;30583;48.714;9.386;2023-04-29T04:37:19;8.68;;;5.18;;
44850;SDS011;30583;48.714;9.386;2023-04-29T04:39:44;8.73;;;6.53;;
44850;SDS011;30583;48.714;9.386;2023-04-29T04:42:10;10.63;;;6.38;;
44850;SDS011;30583;48.714;9.386;2023-04-29T04:44:36;13.15;;;6.75;;
44850;SDS011;30583;48.714;9.386;2023-04-29T04:47:02;8.65;;;5.93;;
44850;SDS011;30583;48.714;9.386;2023-04-29T04:49:27;9.00;;;6.18;;
44850;SDS011;30583;48.714;9.386;2023-04-29T04:51:53;13.63;;;7.10;;
44850;SDS011;30583;48.714;9.386;2023-04-29T04:54:19;9.30;;;6.28;;
44850;SDS011;30583;48.714;9.386;2023-04-29T04:56:44;9.63;;;5.55;;
44850;SDS011;30583;48.714;9.386;2023-04-29T04:59:10;9.98;;;5.90;;
44850;SDS011;30583;48.714;9.386;2023-04-29T05:01:35;8.82;;;5.15;;
44850;SDS011;30583;48.714;9.386;2023-04-29T05:04:01;8.07;;;5.57;;
44850;SDS011;30583;48.714;9.386;2023-04-29T05:06:27;7.60;;;5.13;;
44850;SDS011;30583;48.714;9.386;2023-04-29T05:08:52;11.38;;;5.53;;
44850;SDS011;30583;48.714;9.386;2023-04-29T05:11:18;7.05;;;5.25;;
44850;SDS011;30583;48.714;9.386;2023-04-29T05:13:45;7.10;;;5.32;;
44850;SDS011;30583;48.714;9.386;2023-04-29T05:16:11;6.80;;;5.00;;
44850;SDS011;30583;48.714;9.386;2023-04-29T05:18:36;7.53;;;5.07;;
44850;SDS011;30583;48.714;9.386;2023-04-29T05:21:02;6.68;;;5.00;;
44850;SDS011;30583;48.714;9.386;2023-04-29T05:23:28;9.18;;;5.07;;
44850;SDS011;30583;48.714;9.386;2023-04-29T05:25:54;6.30;;;4.63;;
44850;SDS011;30583;48.714;9.386;2023-04-29T05:28:19;6.97;;;4.82;;
44850;SDS011;30583;48.714;9.386;2023-04-29T05:30:45;7.38;;;5.13;;
44850;SDS011;30583;48.714;9.386;2023-04-29T05:33:14;7.82;;;5.47;;
44850;SDS011;30583;48.714;9.386;2023-04-29T05:35:40;6.50;;;5.15;;
44850;SDS011;30583;48.714;9.386;2023-04-29T05:38:06;7.75;;;4.97;;
44850;SDS011;30583;48.714;9.386;2023-04-29T05:40:32;8.25;;;5.30;;
44850;SDS011;30583;48.714;9.386;2023-04-29T05:42:57;10.38;;;5.25;;
44850;SDS011;30583;48.714;9.386;2023-04-29T05:45:23;7.90;;;5.28;;
44850;SDS011;30583;48.714;9.386;2023-04-29T05:47:49;7.03;;;4.95;;
44850;SDS011;30583;48.714;9.386;2023-04-29T05:50:15;9.40;;;5.13;;
44850;SDS011;30583;48.714;9.386;2023-04-29T05:52:40;9.63;;;5.10;;
44850;SDS011;30583;48.714;9.386;2023-04-29T05:55:06;6.93;;;5.22;;
44850;SDS011;30583;48.714;9.386;2023-04-29T05:57:32;7.57;;;4.72;;
44850;SDS011;30583;48.714;9.386;2023-04-29T05:59:58;7.68;;;4.95;;
44850;SDS011;30583;48.714;9.386;2023-04-29T06:02:24;8.35;;;4.80;;
44850;SDS011;30583;48.714;9.386;2023-04-29T06:04:50;9.80;;;5.55;;
44850;SDS011;30583;48.714;9.386;2023-04-29T06:07:16;7.00;;;4.53;;
44850;SDS011;30583;48.714;9.386;2023-04-29T06:09:42;7.00;;;5.22;;
44850;SDS011;30583;48.714;9.386;2023-04-29T06:12:08;7.20;;;4.82;;
44850;SDS011;30583;48.714;9.386;2023-04-29T06:14:34;5.75;;;4.63;;
44850;SDS011;30583;48.714;9.386;2023-04-29T06:16:59;6.18;;;4.43;;
44850;SDS011;30583;48.714;9.386;2023-04-29T06:19:26;7.75;;;5.25;;
44850;SDS011;30583;48.714;9.386;2023-04-29T06:21:51;6.90;;;5.32;;
44850;SDS011;30583;48.714;9.386;2023-04-29T06:24:17;10.48;;;6.22;;
44850;SDS011;30583;48.714;9.386;2023-04-29T06:26:42;7.90;;;5.30;;
44850;SDS011;30583;48.714;9.386;2023-04-29T06:29:08;6.40;;;5.55;;
44850;SDS011;30583;48.714;9.386;2023-04-29T06:31:34;7.60;;;5.47;;
44850;SDS011;30583;48.714;9.386;2023-04-29T06:33:59;8.00;;;5.53;;
44850;SDS011;30583;48.714;9.386;2023-04-29T06:36:25;8.52;;;6.18;;
44850;SDS011;30583;48.714;9.386;2023-04-29T06:38:52;8.52;;;6.60;;
44850;SDS011;30583;48.714;9.386;2023-04-29T06:41:17;7.78;;;5.68;;
44850;SDS011;30583;48.714;9.386;2023-04-29T06:43:43;9.75;;;6.05;;
44850;SDS011;30583;48.714;9.386;2023-04-29T06:46:09;5.80;;;4.95;;
44850;SDS011;30583;48.714;9.386;2023-04-29T06:48:35;7.03;;;5.13;;
44850;SDS011;30583;48.714;9.386;2023-04-29T06:51:01;7.85;;;5.28;;
44850;SDS011;30583;48.714;9.386;2023-04-29T06:53:26;6.40;;;4.80;;
44850;SDS011;30583;48.714;9.386;2023-04-29T06:55:52;6.80;;;4.72;;
44850;SDS011;30583;48.714;9.386;2023-04-29T06:58:18;9.52;;;4.40;;
44850;SDS011;30583;48.714;9.386;2023-04-29T07:00:47;7.82;;;4.20;;
44850;SDS011;30583;48.714;9.386;2023-04-29T07:03:14;7.47;;;3.95;;
44850;SDS011;30583;48.714;9.386;2023-04-29T07:05:41;6.13;;;3.92;;
44850;SDS011;30583;48.714;9.386;2023-04-29T07:08:09;4.63;;;3.78;;
44850;SDS011;30583;48.714;9.386;2023-04-29T07:10:36;6.60;;;3.65;;
44850;SDS011;30583;48.714;9.386;2023-04-29T07:13:02;4.30;;;3.15;;
44850;SDS011;30583;48.714;9.386;2023-04-29T07:15:28;3.67;;;2.80;;
44850;SDS011;30583;48.714;9.386;2023-04-29T07:17:54;3.25;;;2.00;;
44850;SDS011;30583;48.714;9.386;2023-04-29T07:20:21;3.95;;;2.70;;
44850;SDS011;30583;48.714;9.386;2023-04-29T07:22:46;5.68;;;2.90;;
44850;SDS011;30583;48.714;9.386;2023-04-29T07:25:12;4.88;;;3.10;;
44850;SDS011;30583;48.714;9.386;2023-04-29T07:27:38;3.88;;;2.63;;
44850;SDS011;30583;48.714;9.386;2023-04-29T07:30:04;4.25;;;2.72;;
44850;SDS011;30583;48.714;9.386;2023-04-29T07:32:31;4.32;;;2.72;;
44850;SDS011;30583;48.714;9.386;2023-04-29T07:34:57;4.18;;;2.75;;
44850;SDS011;30583;48.714;9.386;2023-04-29T07:37:23;6.05;;;2.63;;
44850;SDS011;30583;48.714;9.386;2023-04-29T07:39:49;4.70;;;2.45;;
44850;SDS011;30583;48.714;9.386;2023-04-29T07:42:15;3.97;;;2.38;;
44850;SDS011;30583;48.714;9.386;2023-04-29T07:44:40;3.60;;;2.33;;
44850;SDS011;30583;48.714;9.386;2023-04-29T07:47:06;3.33;;;2.25;;
44850;SDS011;30583;48.714;9.386;2023-04-29T07:49:31;4.95;;;2.25;;
44850;SDS011;30583;48.714;9.386;2023-04-29T07:51:57;5.32;;;2.45;;
44850;SDS011;30583;48.714;9.386;2023-04-29T07:54:22;5.00;;;2.65;;
44850;SDS011;30583;48.714;9.386;2023-04-29T07:56:48;3.90;;;2.70;;
44850;SDS011;30583;48.714;9.386;2023-04-29T07:59:14;4.47;;;2.75;;
44850;SDS011;30583;48.714;9.386;2023-04-29T08:01:40;3.60;;;2.60;;
44850;SDS011;30583;48.714;9.386;2023-04-29T08:04:06;4.43;;;2.83;;
44850;SDS011;30583;48.714;9.386;2023-04-29T08:06:32;6.45;;;2.90;;
44850;SDS011;30583;48.714;9.386;2023-04-29T08:08:58;12.20;;;7.72;;
44850;SDS011;30583;48.714;9.386;2023-04-29T08:11:24;15.07;;;9.25;;
44850;SDS011;30583;48.714;9.386;2023-04-29T08:13:51;6.45;;;2.92;;
44850;SDS011;30583;48.714;9.386;2023-04-29T08:16:17;4.35;;;2.38;;
44850;SDS011;30583;48.714;9.386;2023-04-29T08:18:42;4.18;;;2.50;;
44850;SDS011;30583;48.714;9.386;2023-04-29T08:21:08;3.53;;;2.33;;
44850;SDS011;30583;48.714;9.386;2023-04-29T08:23:36;4.22;;;2.10;;
44850;SDS011;30583;48.714;9.386;2023-04-29T08:26:02;4.85;;;1.95;;
44850;SDS011;30583;48.714;9.386;2023-04-29T08:28:28;4.68;;;2.28;;
44850;SDS011;30583;48.714;9.386;2023-04-29T08:30:53;5.32;;;3.20;;
44850;SDS011;30583;48.714;9.386;2023-04-29T08:33:19;5.50;;;2.80;;
44850;SDS011;30583;48.714;9.386;2023-04-29T08:35:46;3.35;;;1.88;;
44850;SDS011;30583;48.714;9.386;2023-04-29T08:38:11;2.58;;;1.70;;
44850;SDS011;30583;48.714;9.386;2023-04-29T08:43:07;6.90;;;2.70;;
44850;SDS011;30583;48.714;9.386;2023-04-29T08:45:34;3.75;;;1.88;;
44850;SDS011;30583;48.714;9.386;2023-04-29T08:48:03;5.22;;;1.83;;
44850;SDS011;30583;48.714;9.386;2023-04-29T08:50:30;3.60;;;2.08;;
44850;SDS011;30583;48.714;9.386;2023-04-29T08:53:02;2.47;;;1.80;;
44850;SDS011;30583;48.714;9.386;2023-04-29T08:55:27;2.90;;;1.90;;
44850;SDS011;30583;48.714;9.386;2023-04-29T08:57:53;3.97;;;1.98;;
44850;SDS011;30583;48.714;9.386;2023-04-29T09:00:20;3.50;;;2.00;;
44850;SDS011;30583;48.714;9.386;2023-04-29T09:02:49;14.93;;;11.02;;
44850;SDS011;30583;48.714;9.386;2023-04-29T09:05:15;3.60;;;2.42;;
44850;SDS011;30583;48.714;9.386;2023-04-29T09:07:41;4.70;;;2.38;;
44850;SDS011;30583;48.714;9.386;2023-04-29T09:10:08;8.32;;;2.42;;
44850;SDS011;30583;48.714;9.386;2023-04-29T09:12:35;9.70;;;3.10;;
44850;SDS011;30583;48.714;9.386;2023-04-29T09:15:00;5.88;;;1.98;;
44850;SDS011;30583;48.714;9.386;2023-04-29T09:17:39;9.75;;;5.90;;
44850;SDS011;30583;48.714;9.386;2023-04-29T09:20:33;9.00;;;3.80;;
44850;SDS011;30583;48.714;9.386;2023-04-29T09:23:01;3.83;;;1.90;;
44850;SDS011;30583;48.714;9.386;2023-04-29T09:25:28;3.20;;;1.77;;
44850;SDS011;30583;48.714;9.386;2023-04-29T09:27:55;3.47;;;2.22;;
44850;SDS011;30583;48.714;9.386;2023-04-29T09:30:21;5.13;;;2.08;;
44850;SDS011;30583;48.714;9.386;2023-04-29T09:33:04;3.25;;;1.80;;
44850;SDS011;30583;48.714;9.386;2023-04-29T09:35:31;3.17;;;1.92;;
44850;SDS011;30583;48.714;9.386;2023-04-29T09:40:38;4.82;;;2.08;;
44850;SDS011;30583;48.714;9.386;2023-04-29T09:43:15;3.30;;;2.40;;
44850;SDS011;30583;48.714;9.386;2023-04-29T09:45:46;4.15;;;2.30;;
44850;SDS011;30583;48.714;9.386;2023-04-29T09:48:12;4.32;;;2.38;;
44850;SDS011;30583;48.714;9.386;2023-04-29T09:50:40;6.63;;;2.90;;
44850;SDS011;30583;48.714;9.386;2023-04-29T09:53:08;3.53;;;2.08;;
44850;SDS011;30583;48.714;9.386;2023-04-29T09:55:36;5.72;;;3.05;;
44850;SDS011;30583;48.714;9.386;2023-04-29T09:58:28;4.55;;;2.70;;
44850;SDS011;30583;48.714;9.386;2023-04-29T10:01:01;3.58;;;2.10;;
44850;SDS011;30583;48.714;9.386;2023-04-29T10:03:31;3.13;;;2.10;;
44850;SDS011;30583;48.714;9.386;2023-04-29T10:05:58;5.45;;;3.85;;
44850;SDS011;30583;48.714;9.386;2023-04-29T10:08:25;8.65;;;5.80;;
44850;SDS011;30583;48.714;9.386;2023-04-29T10:10:51;6.53;;;4.07;;
44850;SDS011;30583;48.714;9.386;2023-04-29T10:13:22;3.33;;;2.53;;
44850;SDS011;30583;48.714;9.386;2023-04-29T10:15:51;3.70;;;2.75;;
44850;SDS011;30583;48.714;9.386;2023-04-29T10:18:37;4.40;;;2.15;;
44850;SDS011;30583;48.714;9.386;2023-04-29T10:21:06;3.75;;;2.00;;
44850;SDS011;30583;48.714;9.386;2023-04-29T10:23:35;3.42;;;1.98;;
44850;SDS011;30583;48.714;9.386;2023-04-29T10:26:02;4.15;;;1.70;;
44850;SDS011;30583;48.714;9.386;2023-04-29T10:28:30;3.63;;;1.90;;
44850;SDS011;30583;48.714;9.386;2023-04-29T10:30:57;3.17;;;2.08;;
44850;SDS011;30583;48.714;9.386;2023-04-29T10:33:32;2.60;;;2.10;;
44850;SDS011;30583;48.714;9.386;2023-04-29T10:36:00;5.20;;;2.30;;
44850;SDS011;30583;48.714;9.386;2023-04-29T10:41:09;3.65;;;2.00;;
44850;SDS011;30583;48.714;9.386;2023-04-29T10:43:43;4.32;;;2.60;;
44850;SDS011;30583;48.714;9.386;2023-04-29T10:48:38;4.25;;;2.45;;
44850;SDS011;30583;48.714;9.386;2023-04-29T10:51:04;3.45;;;1.70;;
44850;SDS011;30583;48.714;9.386;2023-04-29T10:53:30;1.98;;;1.10;;
44850;SDS011;30583;48.714;9.386;2023-04-29T10:55:57;3.15;;;1.48;;
44850;SDS011;30583;48.714;9.386;2023-04-29T10:58:33;3.22;;;2.10;;
44850;SDS011;30583;48.714;9.386;2023-04-29T11:01:06;5.22;;;3.28;;
44850;SDS011;30583;48.714;9.386;2023-04-29T11:03:51;6.38;;;2.13;;
44850;SDS011;30583;48.714;9.386;2023-04-29T11:06:25;5.80;;;2.40;;
44850;SDS011;30583;48.714;9.386;2023-04-29T11:09:07;6.43;;;1.85;;
44850;SDS011;30583;48.714;9.386;2023-04-29T11:11:45;3.75;;;1.95;;
44850;SDS011;30583;48.714;9.386;2023-04-29T11:14:12;26.38;;;5.07;;
44850;SDS011;30583;48.714;9.386;2023-04-29T11:16:45;41.38;;;9.30;;
44850;SDS011;30583;48.714;9.386;2023-04-29T11:19:22;52.58;;;11.82;;
44850;SDS011;30583;48.714;9.386;2023-04-29T11:22:02;11.23;;;3.28;;
44850;SDS011;30583;48.714;9.386;2023-04-29T11:24:34;3.17;;;1.60;;
44850;SDS011;30583;48.714;9.386;2023-04-29T11:27:01;3.08;;;1.98;;
44850;SDS011;30583;48.714;9.386;2023-04-29T11:29:29;3.88;;;1.83;;
44850;SDS011;30583;48.714;9.386;2023-04-29T11:32:02;3.72;;;2.03;;
44850;SDS011;30583;48.714;9.386;2023-04-29T11:34:28;3.53;;;1.65;;
44850;SDS011;30583;48.714;9.386;2023-04-29T11:36:53;2.60;;;1.40;;
44850;SDS011;30583;48.714;9.386;2023-04-29T11:39:19;4.72;;;1.95;;
44850;SDS011;30583;48.714;9.386;2023-04-29T11:41:45;4.80;;;2.97;;
44850;SDS011;30583;48.714;9.386;2023-04-29T11:44:10;4.30;;;2.08;;
44850;SDS011;30583;48.714;9.386;2023-04-29T11:46:36;7.03;;;2.38;;
44850;SDS011;30583;48.714;9.386;2023-04-29T11:49:02;5.50;;;2.08;;
44850;SDS011;30583;48.714;9.386;2023-04-29T11:51:27;4.32;;;2.28;;
44850;SDS011;30583;48.714;9.386;2023-04-29T11:53:53;4.88;;;2.08;;
44850;SDS011;30583;48.714;9.386;2023-04-29T11:56:22;3.28;;;1.80;;
44850;SDS011;30583;48.714;9.386;2023-04-29T11:58:56;4.60;;;2.63;;
44850;SDS011;30583;48.714;9.386;2023-04-29T12:01:23;6.63;;;2.90;;
44850;SDS011;30583;48.714;9.386;2023-04-29T12:03:49;3.67;;;2.20;;
44850;SDS011;30583;48.714;9.386;2023-04-29T12:06:15;3.70;;;2.35;;
44850;SDS011;30583;48.714;9.386;2023-04-29T12:08:40;4.80;;;1.98;;
44850;SDS011;30583;48.714;9.386;2023-04-29T12:11:06;2.88;;;1.90;;
44850;SDS011;30583;48.714;9.386;2023-04-29T12:13:32;3.75;;;2.05;;
44850;SDS011;30583;48.714;9.386;2023-04-29T12:16:01;4.18;;;2.35;;
44850;SDS011;30583;48.714;9.386;2023-04-29T12:18:28;4.95;;;2.40;;
44850;SDS011;30583;48.714;9.386;2023-04-29T12:20:54;4.63;;;2.40;;
44850;SDS011;30583;48.714;9.386;2023-04-29T12:23:21;2.95;;;2.03;;
44850;SDS011;30583;48.714;9.386;2023-04-29T12:25:51;6.32;;;2.65;;
44850;SDS011;30583;48.714;9.386;2023-04-29T12:28:21;4.82;;;2.45;;
44850;SDS011;30583;48.714;9.386;2023-04-29T12:30:48;4.57;;;2.30;;
44850;SDS011;30583;48.714;9.386;2023-04-29T12:33:19;4.05;;;2.15;;
44850;SDS011;30583;48.714;9.386;2023-04-29T12:35:56;4.05;;;2.60;;
44850;SDS011;30583;48.714;9.386;2023-04-29T12:38:23;3.90;;;2.20;;
44850;SDS011;30583;48.714;9.386;2023-04-29T12:40:53;3.17;;;2.15;;
44850;SDS011;30583;48.714;9.386;2023-04-29T12:43:27;5.22;;;2.45;;
44850;SDS011;30583;48.714;9.386;2023-04-29T12:45:54;4.30;;;2.90;;
44850;SDS011;30583;48.714;9.386;2023-04-29T12:48:30;5.20;;;2.78;;
44850;SDS011;30583;48.714;9.386;2023-04-29T12:50:57;4.72;;;2.50;;
44850;SDS011;30583;48.714;9.386;2023-04-29T12:53:24;5.43;;;2.50;;
44850;SDS011;30583;48.714;9.386;2023-04-29T12:55:51;4.13;;;3.03;;
44850;SDS011;30583;48.714;9.386;2023-04-29T12:58:17;6.47;;;3.10;;
44850;SDS011;30583;48.714;9.386;2023-04-29T13:00:43;9.50;;;4.28;;
44850;SDS011;30583;48.714;9.386;2023-04-29T13:03:09;4.30;;;2.60;;
44850;SDS011;30583;48.714;9.386;2023-04-29T13:05:34;4.22;;;2.38;;
44850;SDS011;30583;48.714;9.386;2023-04-29T13:08:00;4.43;;;2.33;;
44850;SDS011;30583;48.714;9.386;2023-04-29T13:10:26;4.13;;;2.53;;
44850;SDS011;30583;48.714;9.386;2023-04-29T13:12:55;5.35;;;2.97;;
44850;SDS011;30583;48.714;9.386;2023-04-29T13:15:20;3.92;;;2.53;;
44850;SDS011;30583;48.714;9.386;2023-04-29T13:17:46;3.95;;;2.60;;
44850;SDS011;30583;48.714;9.386;2023-04-29T13:20:12;4.03;;;2.45;;
44850;SDS011;30583;48.714;9.386;2023-04-29T13:22:39;6.32;;;2.80;;
44850;SDS011;30583;48.714;9.386;2023-04-29T13:25:05;4.82;;;2.60;;
44850;SDS011;30583;48.714;9.386;2023-04-29T13:27:32;4.45;;;2.40;;
44850;SDS011;30583;48.714;9.386;2023-04-29T13:29:57;6.03;;;2.80;;
44850;SDS011;30583;48.714;9.386;2023-04-29T13:32:23;5.40;;;2.90;;
44850;SDS011;30583;48.714;9.386;2023-04-29T13:34:49;3.85;;;2.55;;
44850;SDS011;30583;48.714;9.386;2023-04-29T13:37:15;4.80;;;3.00;;
44850;SDS011;30583;48.714;9.386;2023-04-29T13:39:41;4.15;;;2.95;;
44850;SDS011;30583;48.714;9.386;2023-04-29T13:42:06;4.40;;;3.20;;
44850;SDS011;30583;48.714;9.386;2023-04-29T13:44:32;7.00;;;3.65;;
44850;SDS011;30583;48.714;9.386;2023-04-29T13:46:58;7.13;;;4.05;;
44850;SDS011;30583;48.714;9.386;2023-04-29T13:49:24;7.63;;;4.45;;
44850;SDS011;30583;48.714;9.386;2023-04-29T13:51:51;6.07;;;4.00;;
44850;SDS011;30583;48.714;9.386;2023-04-29T13:54:16;15.27;;;11.10;;
44850;SDS011;30583;48.714;9.386;2023-04-29T13:56:45;6.95;;;4.47;;
44850;SDS011;30583;48.714;9.386;2023-04-29T13:59:11;16.63;;;11.55;;
44850;SDS011;30583;48.714;9.386;2023-04-29T14:01:36;7.57;;;3.58;;
44850;SDS011;30583;48.714;9.386;2023-04-29T14:04:02;6.53;;;3.50;;
44850;SDS011;30583;48.714;9.386;2023-04-29T14:06:27;6.68;;;4.10;;
44850;SDS011;30583;48.714;9.386;2023-04-29T14:08:54;6.63;;;4.70;;
44850;SDS011;30583;48.714;9.386;2023-04-29T14:11:20;7.15;;;4.72;;
44850;SDS011;30583;48.714;9.386;2023-04-29T14:13:45;7.30;;;4.95;;
44850;SDS011;30583;48.714;9.386;2023-04-29T14:16:11;8.15;;;5.32;;
44850;SDS011;30583;48.714;9.386;2023-04-29T14:18:36;6.68;;;4.38;;
44850;SDS011;30583;48.714;9.386;2023-04-29T14:21:02;6.40;;;4.88;;
44850;SDS011;30583;48.714;9.386;2023-04-29T14:23:28;6.65;;;4.57;;
44850;SDS011;30583;48.714;9.386;2023-04-29T14:25:53;6.78;;;4.68;;
44850;SDS011;30583;48.714;9.386;2023-04-29T14:28:19;6.55;;;5.32;;
44850;SDS011;30583;48.714;9.386;2023-04-29T14:30:45;10.02;;;6.55;;
44850;SDS011;30583;48.714;9.386;2023-04-29T14:33:10;7.80;;;5.80;;
44850;SDS011;30583;48.714;9.386;2023-04-29T14:35:36;6.95;;;4.47;;
44850;SDS011;30583;48.714;9.386;2023-04-29T14:38:02;9.73;;;4.38;;
44850;SDS011;30583;48.714;9.386;2023-04-29T14:40:27;8.23;;;4.20;;
44850;SDS011;30583;48.714;9.386;2023-04-29T14:42:53;8.13;;;4.90;;
44850;SDS011;30583;48.714;9.386;2023-04-29T14:45:19;7.75;;;5.10;;
44850;SDS011;30583;48.714;9.386;2023-04-29T14:47:45;6.40;;;4.90;;
44850;SDS011;30583;48.714;9.386;2023-04-29T14:50:10;7.00;;;4.80;;
44850;SDS011;30583;48.714;9.386;2023-04-29T14:52:36;7.15;;;5.00;;
44850;SDS011;30583;48.714;9.386;2023-04-29T14:55:01;8.90;;;5.25;;
44850;SDS011;30583;48.714;9.386;2023-04-29T14:57:27;7.55;;;5.03;;
44850;SDS011;30583;48.714;9.386;2023-04-29T14:59:54;11.13;;;5.47;;
44850;SDS011;30583;48.714;9.386;2023-04-29T15:02:20;9.90;;;5.75;;
44850;SDS011;30583;48.714;9.386;2023-04-29T15:04:45;9.30;;;5.80;;
44850;SDS011;30583;48.714;9.386;2023-04-29T15:07:14;8.27;;;5.80;;